Time;durP1;ratioP1;P1;durP2;ratioP2;P2;SDS_P1;SDS_P2;PMS_P1;PMS_P2;Temp;Humidity;BMP_temperature;BMP_pressure;BME280_temperature;BME280_humidity;BME280_pressure;Samples;Min_cycle;Max_cycle;Signal;HPM_P1;HPM_P2
2023/05/07 00:02:30;;;;;;;5.05;4.07;;;9.00;99.90;;;;;;2602739;54;20812;31
2023/05/07 00:05:10;;;;;;;5.70;4.32;;;9.00;99.90;;;;;;2603465;54;20109;31
2023/05/07 00:07:46;;;;;;;4.60;4.10;;;9.10;99.90;;;;;;2621944;46;20026;31
2023/05/07 00:10:26;;;;;;;5.83;4.37;;;9.00;99.90;;;;;;2621678;46;20029;31
2023/05/07 00:13:02;;;;;;;5.43;3.53;;;9.10;99.90;;;;;;2606853;46;20252;31
2023/05/07 00:15:38;;;;;;;6.65;3.80;;;9.10;99.90;;;;;;2603475;54;19942;31
2023/05/07 00:18:15;;;;;;;;;;;9.10;99.90;;;;;;2603827;54;20031;31
2023/05/07 00:20:50;;;;;;;5.43;4.20;;;9.10;99.90;;;;;;2621970;46;19998;31
2023/05/07 00:23:26;;;;;;;;;;;9.10;99.90;;;;;;2622222;46;20105;31
2023/05/07 00:26:05;;;;;;;4.57;3.35;;;9.10;99.90;;;;;;2603434;54;19941;31
2023/05/07 00:28:43;;;;;;;4.78;3.45;;;9.10;99.90;;;;;;2602660;54;19938;31
2023/05/07 00:31:19;;;;;;;5.25;3.65;;;9.10;99.90;;;;;;2602848;54;20899;31
2023/05/07 00:33:56;;;;;;;6.63;3.83;;;9.10;99.90;;;;;;2603417;54;20085;31
2023/05/07 00:36:34;;;;;;;4.70;3.63;;;9.10;99.90;;;;;;2603354;54;20897;31
2023/05/07 00:39:09;;;;;;;6.18;3.15;;;9.10;99.90;;;;;;2603491;54;20923;31
2023/05/07 00:41:51;;;;;;;7.43;3.88;;;9.10;99.90;;;;;;2608293;39;21488;31
2023/05/07 00:44:28;;;;;;;7.13;3.88;;;9.10;99.90;;;;;;2602790;54;20057;31
2023/05/07 00:47:06;;;;;;;5.18;3.58;;;9.10;99.90;;;;;;2602494;54;20033;31
2023/05/07 00:49:47;;;;;;;5.82;4.50;;;9.10;99.90;;;;;;2603120;54;20860;31
2023/05/07 00:52:21;;;;;;;6.60;4.70;;;9.10;99.90;;;;;;2603387;54;20038;31
2023/05/07 00:55:00;;;;;;;4.72;3.60;;;9.10;99.90;;;;;;2603334;54;20026;31
2023/05/07 00:57:43;;;;;;;7.32;4.53;;;9.10;99.90;;;;;;2603245;54;20133;31
2023/05/07 01:00:20;;;;;;;5.78;3.67;;;9.20;99.90;;;;;;2602939;54;20197;31
2023/05/07 01:03:03;;;;;;;6.15;3.90;;;9.20;99.90;;;;;;2603175;54;20029;31
2023/05/07 01:05:40;;;;;;;6.35;4.20;;;9.10;99.90;;;;;;2603294;54;20054;31
2023/05/07 01:08:16;;;;;;;6.55;4.57;;;9.10;99.90;;;;;;2603053;54;25064;31
2023/05/07 01:10:56;;;;;;;7.05;4.78;;;9.10;99.90;;;;;;2603000;54;20061;31
2023/05/07 01:13:37;;;;;;;7.35;5.00;;;9.00;99.90;;;;;;2603205;54;20056;31
2023/05/07 01:16:14;;;;;;;6.70;4.80;;;9.10;99.90;;;;;;2602640;54;20037;31
2023/05/07 01:18:51;;;;;;;7.07;5.25;;;9.10;99.90;;;;;;2602370;54;20109;31
2023/05/07 01:21:30;;;;;;;8.70;5.32;;;9.00;99.90;;;;;;2603445;54;20029;31
2023/05/07 01:24:05;;;;;;;5.50;4.60;;;9.00;99.90;;;;;;2684010;31;21507;31
2023/05/07 01:26:44;;;;;;;6.88;4.80;;;9.00;99.90;;;;;;2603110;54;20069;31
2023/05/07 01:29:25;;;;;;;7.47;4.87;;;9.00;99.90;;;;;;2602269;54;20022;31
2023/05/07 01:32:03;;;;;;;6.65;4.70;;;9.00;99.90;;;;;;2603398;54;20064;31
2023/05/07 01:34:41;;;;;;;5.90;4.87;;;9.00;99.90;;;;;;2621198;46;20033;31
2023/05/07 01:37:15;;;;;;;7.07;5.10;;;9.00;99.90;;;;;;2603254;54;20338;31
2023/05/07 01:39:53;;;;;;;5.68;4.47;;;9.00;99.90;;;;;;2621818;46;20027;31
2023/05/07 01:42:27;;;;;;;5.95;4.35;;;9.00;99.90;;;;;;2621647;46;20009;31
2023/05/07 01:45:08;;;;;;;5.72;4.50;;;9.00;99.90;;;;;;2603102;54;20046;31
2023/05/07 01:47:44;;;;;;;7.47;4.53;;;9.00;99.90;;;;;;2621888;46;20027;31
2023/05/07 01:50:23;;;;;;;9.87;5.33;;;9.00;99.90;;;;;;2603158;54;19964;31
2023/05/07 01:53:00;;;;;;;6.50;4.63;;;9.00;99.90;;;;;;2602908;54;20115;31
2023/05/07 01:55:42;;;;;;;6.22;4.47;;;9.00;99.90;;;;;;2603192;54;20046;31
2023/05/07 01:58:20;;;;;;;7.00;4.70;;;9.00;99.90;;;;;;2602872;54;20043;31
2023/05/07 02:00:59;;;;;;;5.87;3.87;;;8.90;99.90;;;;;;2603018;54;20033;31
2023/05/07 02:03:35;;;;;;;6.05;4.30;;;9.00;99.90;;;;;;2603161;54;20034;31
2023/05/07 02:06:22;;;;;;;6.70;5.03;;;8.90;99.90;;;;;;2603189;54;20042;31
2023/05/07 02:09:04;;;;;;;8.80;5.53;;;8.90;99.90;;;;;;2603019;54;20038;31
2023/05/07 02:11:40;;;;;;;8.35;4.95;;;8.80;99.90;;;;;;2603029;54;20096;31
2023/05/07 02:14:17;;;;;;;7.50;4.93;;;8.90;99.90;;;;;;2602305;54;20034;31
2023/05/07 02:16:56;;;;;;;7.85;5.68;;;8.80;99.90;;;;;;2602857;54;20046;31
2023/05/07 02:19:37;;;;;;;7.50;5.15;;;8.80;99.90;;;;;;2609868;46;20112;31
2023/05/07 02:22:17;;;;;;;10.10;5.53;;;8.80;99.90;;;;;;2603066;54;20056;31
2023/05/07 02:24:51;;;;;;;7.40;5.85;;;8.80;99.90;;;;;;2602987;54;21001;31
2023/05/07 02:27:27;;;;;;;8.95;6.20;;;8.90;99.90;;;;;;2602534;54;20082;31
2023/05/07 02:30:03;;;;;;;8.60;5.40;;;8.80;99.90;;;;;;2603097;54;20105;31
2023/05/07 02:32:46;;;;;;;8.95;6.05;;;8.80;99.90;;;;;;2621186;47;20030;31
2023/05/07 02:35:22;;;;;;;8.98;6.38;;;8.90;99.90;;;;;;2602951;54;20046;31
2023/05/07 02:38:00;;;;;;;;;;;8.80;99.90;;;;;;2603175;54;20905;31
2023/05/07 02:40:42;;;;;;;9.35;5.70;;;8.80;99.90;;;;;;2603036;54;19934;31
2023/05/07 02:43:18;;;;;;;8.37;5.37;;;8.70;99.90;;;;;;2602644;54;20770;31
2023/05/07 02:46:07;;;;;;;7.10;5.75;;;8.70;99.90;;;;;;2602152;54;20023;31
2023/05/07 02:49:00;;;;;;;6.32;5.18;;;8.70;99.90;;;;;;2701132;31;20470;31
2023/05/07 02:51:38;;;;;;;9.95;6.35;;;8.70;99.90;;;;;;2602072;54;20851;31
2023/05/07 02:54:20;;;;;;;7.80;4.75;;;8.60;99.90;;;;;;2621189;47;20042;31
2023/05/07 02:57:04;;;;;;;7.72;5.60;;;8.70;99.90;;;;;;2602722;54;20034;31
2023/05/07 02:59:42;;;;;;;10.13;6.45;;;8.70;99.90;;;;;;2602718;54;20027;31
2023/05/07 03:02:20;;;;;;;9.77;5.63;;;8.70;99.90;;;;;;2602749;54;20961;31
2023/05/07 03:04:58;;;;;;;;;;;8.70;99.90;;;;;;2603137;54;20035;31
2023/05/07 03:07:34;;;;;;;8.88;5.55;;;8.70;99.90;;;;;;2621371;47;19981;31
2023/05/07 03:10:12;;;;;;;8.23;5.28;;;8.70;99.90;;;;;;2603159;54;20809;31
2023/05/07 03:15:29;;;;;;;9.70;6.30;;;8.60;99.90;;;;;;2603046;54;20083;31
2023/05/07 03:18:08;;;;;;;7.82;5.70;;;8.60;99.90;;;;;;2622048;46;20022;31
2023/05/07 03:20:49;;;;;;;8.07;5.80;;;8.70;99.90;;;;;;2603561;54;20046;31
2023/05/07 03:23:27;;;;;;;8.70;5.88;;;8.60;99.90;;;;;;2603458;54;20023;31
2023/05/07 03:26:04;;;;;;;9.40;5.05;;;8.60;99.90;;;;;;2603343;54;20068;31
2023/05/07 03:28:41;;;;;;;9.35;5.25;;;8.70;99.90;;;;;;2602832;54;20026;31
2023/05/07 03:31:24;;;;;;;5.55;4.95;;;8.70;99.90;;;;;;2614072;46;20053;31
2023/05/07 03:34:03;;;;;;;7.40;5.82;;;8.70;99.90;;;;;;2602878;54;19934;31
2023/05/07 03:36:44;;;;;;;8.25;5.70;;;8.70;99.90;;;;;;2602837;54;20875;31
2023/05/07 03:39:24;;;;;;;8.70;5.15;;;8.70;99.90;;;;;;2604778;46;20796;31
2023/05/07 03:42:00;;;;;;;5.63;4.75;;;8.70;99.90;;;;;;2602654;54;20907;31
2023/05/07 03:44:39;;;;;;;6.78;4.50;;;8.60;99.90;;;;;;2602801;54;20121;31
2023/05/07 03:47:18;;;;;;;6.63;4.55;;;8.60;99.90;;;;;;2603511;54;20026;31
2023/05/07 03:52:31;;;;;;;8.90;7.55;;;8.70;99.90;;;;;;2603517;54;20056;31
2023/05/07 03:55:10;;;;;;;9.05;7.65;;;8.60;99.90;;;;;;2603417;54;20064;31
2023/05/07 04:00:26;;;;;;;11.00;8.80;;;8.60;99.90;;;;;;2603546;54;20032;31
2023/05/07 04:03:08;;;;;;;10.40;9.02;;;8.60;99.90;;;;;;2603293;54;20049;31
2023/05/07 04:05:45;;;;;;;9.52;8.45;;;8.50;99.90;;;;;;2602740;54;20038;31
2023/05/07 04:08:25;;;;;;;11.63;10.00;;;8.50;99.90;;;;;;2619623;46;20039;31
2023/05/07 04:11:04;;;;;;;15.82;12.48;;;8.50;99.90;;;;;;2657631;31;20027;31
2023/05/07 04:13:46;;;;;;;14.23;11.05;;;8.50;99.90;;;;;;2621862;46;20431;31
2023/05/07 04:16:25;;;;;;;12.60;10.07;;;8.50;99.90;;;;;;2603384;54;20029;31
2023/05/07 04:19:03;;;;;;;12.20;7.63;;;8.40;99.90;;;;;;2602572;54;20759;31
2023/05/07 04:21:42;;;;;;;9.80;7.65;;;8.40;99.90;;;;;;2603095;54;20022;31
2023/05/07 04:24:21;;;;;;;9.13;7.70;;;8.40;99.90;;;;;;2621813;46;20146;31
2023/05/07 04:26:58;;;;;;;11.07;7.65;;;8.40;99.90;;;;;;2603281;54;20026;31
2023/05/07 04:29:42;;;;;;;9.38;7.70;;;8.40;99.90;;;;;;2603314;54;20901;31
2023/05/07 04:32:22;;;;;;;8.25;7.10;;;8.40;99.90;;;;;;2603547;54;20889;31
2023/05/07 04:35:01;;;;;;;8.32;6.07;;;8.40;99.90;;;;;;2603530;54;20876;31
2023/05/07 04:37:38;;;;;;;7.63;6.22;;;8.50;99.90;;;;;;2621828;46;20033;31
2023/05/07 04:40:21;;;;;;;6.97;5.60;;;8.50;99.90;;;;;;2603222;54;20921;31
2023/05/07 04:43:00;;;;;;;5.63;5.03;;;8.50;99.90;;;;;;2603192;54;20841;31
2023/05/07 04:45:41;;;;;;;7.07;5.22;;;8.50;99.90;;;;;;2603513;54;20023;31
2023/05/07 04:51:19;;;;;;;6.68;4.75;;;8.50;99.90;;;;;;2602651;54;20023;31
2023/05/07 04:54:03;;;;;;;5.53;4.17;;;8.60;99.90;;;;;;2602546;54;20037;31
2023/05/07 04:56:49;;;;;;;4.72;3.72;;;8.60;99.90;;;;;;2602500;54;19934;31
2023/05/07 05:02:37;;;;;;;5.90;4.60;;;8.60;99.90;;;;;;2603322;54;20023;31
2023/05/07 05:05:16;;;;;;;8.07;4.45;;;8.60;99.90;;;;;;2621870;46;20100;31
2023/05/07 05:07:57;;;;;;;7.40;4.83;;;8.60;99.90;;;;;;2603133;54;20935;31
2023/05/07 05:10:34;;;;;;;5.30;4.30;;;8.60;99.90;;;;;;2621427;46;20881;31
2023/05/07 05:13:15;;;;;;;6.50;5.10;;;8.60;99.90;;;;;;2603382;54;20765;31
2023/05/07 05:15:52;;;;;;;5.78;4.75;;;8.60;99.90;;;;;;2603238;54;20022;31
2023/05/07 05:18:28;;;;;;;6.72;4.13;;;8.60;99.90;;;;;;2602349;54;20109;31
2023/05/07 05:21:04;;;;;;;5.80;4.53;;;8.60;99.90;;;;;;2603177;54;20034;31
2023/05/07 05:23:41;;;;;;;7.05;4.50;;;8.60;99.90;;;;;;2602999;54;20022;31
2023/05/07 05:26:25;;;;;;;5.72;4.60;;;8.60;99.90;;;;;;2603095;54;20740;31
2023/05/07 05:29:10;;;;;;;7.45;4.82;;;8.50;99.90;;;;;;2603063;54;20058;31
2023/05/07 05:31:52;;;;;;;6.15;4.55;;;8.50;99.90;;;;;;2621498;46;20022;31
2023/05/07 05:34:29;;;;;;;6.20;4.40;;;8.50;99.90;;;;;;2603030;54;20030;31
2023/05/07 05:37:05;;;;;;;7.85;5.05;;;8.50;99.90;;;;;;2603224;54;20879;31
2023/05/07 05:39:42;;;;;;;6.70;4.50;;;8.50;99.90;;;;;;2621672;46;20033;31
2023/05/07 05:42:18;;;;;;;5.95;4.07;;;8.50;99.90;;;;;;2603000;54;20038;31
2023/05/07 05:45:02;;;;;;;7.20;4.65;;;8.50;99.90;;;;;;2602970;54;19930;31
2023/05/07 05:47:44;;;;;;;6.63;4.60;;;8.50;99.90;;;;;;2621871;46;20042;31
2023/05/07 05:50:26;;;;;;;6.95;4.45;;;8.50;99.90;;;;;;2602725;54;20023;31
2023/05/07 05:53:06;;;;;;;7.03;4.53;;;8.60;99.90;;;;;;2603182;54;20130;31
2023/05/07 05:55:41;;;;;;;6.30;4.07;;;8.70;99.90;;;;;;2607896;39;20171;31
2023/05/07 05:58:17;;;;;;;;;;;8.70;99.90;;;;;;2603022;54;20037;31
2023/05/07 06:01:02;;;;;;;6.50;4.10;;;8.70;99.90;;;;;;2603138;54;19934;31
2023/05/07 06:03:39;;;;;;;4.57;3.40;;;8.80;99.90;;;;;;2602911;54;20037;31
2023/05/07 06:06:21;;;;;;;10.85;4.00;;;8.80;99.90;;;;;;2602926;54;20029;31
2023/05/07 06:08:59;;;;;;;5.95;4.50;;;8.80;99.90;;;;;;2603179;54;20871;31
2023/05/07 06:11:42;;;;;;;6.82;4.90;;;8.80;99.90;;;;;;2603176;54;20026;31
2023/05/07 06:14:20;;;;;;;5.10;3.97;;;8.80;99.90;;;;;;2621320;46;20145;31
2023/05/07 06:17:00;;;;;;;5.00;4.00;;;8.90;99.90;;;;;;2603177;54;20247;31
2023/05/07 06:19:35;;;;;;;4.72;3.70;;;8.90;99.90;;;;;;2602052;54;20032;31
2023/05/07 06:22:12;;;;;;;4.18;3.35;;;8.90;99.90;;;;;;2602999;54;20026;31
2023/05/07 06:24:47;;;;;;;;;;;8.90;99.90;;;;;;2603132;54;20835;31
2023/05/07 06:27:23;;;;;;;6.18;3.72;;;8.90;99.90;;;;;;2621271;47;20014;31
2023/05/07 06:29:59;;;;;;;6.50;4.55;;;8.90;99.90;;;;;;2602771;54;20839;31
2023/05/07 06:32:40;;;;;;;5.50;4.13;;;8.90;99.90;;;;;;2602862;54;20034;31
2023/05/07 06:35:18;;;;;;;5.60;4.03;;;8.90;99.90;;;;;;2602753;54;20882;31
2023/05/07 06:37:54;;;;;;;6.50;4.88;;;8.90;99.90;;;;;;2602932;54;20026;31
2023/05/07 06:40:35;;;;;;;6.13;4.55;;;8.80;99.90;;;;;;2602792;54;20034;31
2023/05/07 06:43:10;;;;;;;9.35;4.30;;;8.80;99.90;;;;;;2620933;47;20089;31
2023/05/07 06:46:11;;;;;;;4.72;3.78;;;8.80;99.90;;;;;;2603460;54;20030;31
2023/05/07 06:48:53;;;;;;;4.32;3.20;;;8.80;99.90;;;;;;2603951;54;20352;31
2023/05/07 06:51:33;;;;;;;3.50;2.80;;;8.90;99.90;;;;;;2603627;54;20162;31
2023/05/07 06:54:14;;;;;;;4.28;3.00;;;8.80;99.90;;;;;;2603725;54;20065;31
2023/05/07 06:56:55;;;;;;;4.63;3.28;;;8.80;99.90;;;;;;2603459;54;20153;31
2023/05/07 06:59:33;;;;;;;4.25;2.92;;;8.80;99.90;;;;;;2622262;46;20026;31
2023/05/07 07:02:12;;;;;;;;;;;8.80;99.90;;;;;;2603807;54;20835;31
2023/05/07 07:04:55;;;;;;;5.90;2.50;;;8.80;99.90;;;;;;2603529;54;20656;31
2023/05/07 07:07:36;;;;;;;4.13;2.45;;;8.80;99.90;;;;;;2603531;54;20042;31
2023/05/07 07:10:12;;;;;;;3.90;2.60;;;8.80;99.90;;;;;;2603521;54;20026;31
2023/05/07 07:12:49;;;;;;;4.50;2.47;;;8.80;99.90;;;;;;2622270;46;20030;31
2023/05/07 07:15:27;;;;;;;3.93;2.23;;;8.80;99.90;;;;;;2603589;54;20794;31
2023/05/07 07:18:02;;;;;;;3.70;2.35;;;8.80;99.90;;;;;;2603691;54;21712;31
2023/05/07 07:20:44;;;;;;;2.80;2.40;;;8.90;99.90;;;;;;2603483;54;20022;31
2023/05/07 07:23:24;;;;;;;3.95;2.40;;;8.90;99.90;;;;;;2608751;39;20310;31
2023/05/07 07:26:01;;;;;;;2.65;2.28;;;8.90;99.90;;;;;;2610313;46;20045;31
2023/05/07 07:28:36;;;;;;;;;;;9.00;99.90;;;;;;2603769;54;20882;31
2023/05/07 07:31:15;;;;;;;5.60;2.40;;;9.00;99.90;;;;;;2622238;46;19934;31
2023/05/07 07:33:58;;;;;;;3.88;2.92;;;9.00;99.90;;;;;;2603274;54;20050;31
2023/05/07 07:36:33;;;;;;;5.20;4.00;;;9.10;99.90;;;;;;2622232;46;20033;31
2023/05/07 07:39:28;;;;;;;5.47;3.22;;;9.00;99.90;;;;;;2603451;54;24068;31
2023/05/07 07:42:05;;;;;;;5.25;3.85;;;9.10;99.90;;;;;;2603603;54;20038;31
2023/05/07 07:44:43;;;;;;;4.88;4.07;;;9.10;99.90;;;;;;2603343;54;20050;31
2023/05/07 07:47:21;;;;;;;6.50;3.83;;;9.10;99.90;;;;;;2603345;54;20121;31
2023/05/07 07:50:01;;;;;;;5.20;3.90;;;9.20;99.90;;;;;;2602718;54;20093;31
2023/05/07 07:52:40;;;;;;;5.78;3.95;;;9.20;99.90;;;;;;2603569;54;20861;31
2023/05/07 07:55:22;;;;;;;5.47;4.05;;;9.20;99.90;;;;;;2622080;46;20030;31
2023/05/07 07:58:01;;;;;;;5.20;4.05;;;9.20;99.90;;;;;;2603558;54;20027;31
2023/05/07 08:00:37;;;;;;;5.60;4.25;;;9.20;99.90;;;;;;2603431;54;20791;31
2023/05/07 08:03:14;;;;;;;;;;;9.20;99.90;;;;;;2603651;54;20034;31
2023/05/07 08:05:53;;;;;;;6.57;3.85;;;9.20;99.90;;;;;;2603552;54;19993;31
2023/05/07 08:08:32;;;;;;;7.85;5.22;;;9.10;99.90;;;;;;2607291;46;20022;31
2023/05/07 08:11:11;;;;;;;5.13;4.60;;;9.10;99.90;;;;;;2603476;54;20049;31
2023/05/07 08:13:48;;;;;;;33.78;12.90;;;9.00;99.90;;;;;;2603277;54;20816;31
2023/05/07 08:16:28;;;;;;;5.70;4.00;;;9.10;99.90;;;;;;2603558;54;20022;31
2023/05/07 08:19:06;;;;;;;6.30;4.22;;;9.10;99.90;;;;;;2603398;54;20029;31
2023/05/07 08:21:42;;;;;;;5.68;4.25;;;9.10;99.90;;;;;;2603333;54;20919;31
2023/05/07 08:24:21;;;;;;;5.30;4.10;;;9.10;99.90;;;;;;2602792;54;20299;31
2023/05/07 08:27:05;;;;;;;5.95;4.47;;;9.10;99.90;;;;;;2602572;54;20767;31
2023/05/07 08:29:47;;;;;;;6.90;4.70;;;9.10;99.90;;;;;;2602774;54;20875;31
2023/05/07 08:32:26;;;;;;;6.68;4.72;;;9.10;99.90;;;;;;2603588;54;20108;31
2023/05/07 08:35:03;;;;;;;6.38;4.90;;;9.10;99.90;;;;;;2603424;54;20026;31
2023/05/07 08:37:40;;;;;;;7.35;5.15;;;9.00;99.90;;;;;;2603259;54;20976;31
2023/05/07 08:40:17;;;;;;;7.50;5.40;;;9.10;99.90;;;;;;2604344;46;20023;31
2023/05/07 08:42:58;;;;;;;8.05;5.70;;;9.00;99.90;;;;;;2602670;54;20254;31
2023/05/07 08:45:34;;;;;;;7.63;5.55;;;9.00;99.90;;;;;;2621447;46;20081;31
2023/05/07 08:48:13;;;;;;;8.20;5.30;;;9.00;99.90;;;;;;2621897;46;19950;31
2023/05/07 08:50:50;;;;;;;8.63;5.82;;;8.90;99.90;;;;;;2603110;54;20786;31
2023/05/07 08:53:26;;;;;;;6.25;4.57;;;8.90;99.90;;;;;;2603277;54;20034;31
2023/05/07 08:56:02;;;;;;;6.68;5.13;;;8.90;99.90;;;;;;2603357;54;20037;31
2023/05/07 08:58:41;;;;;;;5.18;4.43;;;8.90;99.90;;;;;;2639300;39;20342;31
2023/05/07 09:01:20;;;;;;;6.22;4.20;;;9.00;99.90;;;;;;2603163;54;20061;31
2023/05/07 09:03:59;;;;;;;5.40;4.15;;;9.00;99.90;;;;;;2603439;54;20046;31
2023/05/07 09:06:41;;;;;;;7.63;4.57;;;9.00;99.90;;;;;;2603087;54;20052;31
2023/05/07 09:09:22;;;;;;;6.38;4.60;;;9.00;99.90;;;;;;2621274;46;21076;31
2023/05/07 09:12:04;;;;;;;7.50;4.63;;;9.00;99.90;;;;;;2603226;54;20049;31
2023/05/07 09:14:48;;;;;;;4.95;4.40;;;9.10;99.90;;;;;;2603299;54;20052;31
2023/05/07 09:17:24;;;;;;;6.30;4.80;;;9.10;99.90;;;;;;2603278;54;20112;31
2023/05/07 09:20:10;;;;;;;5.25;4.55;;;9.10;99.90;;;;;;2603163;54;20886;31
2023/05/07 09:22:47;;;;;;;8.70;5.53;;;9.20;99.90;;;;;;2603293;54;20811;31
2023/05/07 09:25:36;;;;;;;4.77;4.27;;;9.20;99.90;;;;;;2603056;54;20068;31
2023/05/07 09:28:20;;;;;;;9.27;4.80;;;9.20;99.90;;;;;;2603368;54;19934;31
2023/05/07 09:31:02;;;;;;;5.95;4.55;;;9.30;99.90;;;;;;2603132;54;20038;31
2023/05/07 09:33:39;;;;;;;7.72;4.80;;;9.20;99.90;;;;;;2602211;54;21651;31
2023/05/07 09:36:22;;;;;;;5.60;4.22;;;9.30;99.90;;;;;;2602959;54;20030;31
2023/05/07 09:38:59;;;;;;;5.38;4.15;;;9.30;99.90;;;;;;2602276;54;20073;31
2023/05/07 09:41:45;;;;;;;6.20;4.07;;;9.30;99.90;;;;;;2613465;46;20029;31
2023/05/07 09:44:34;;;;;;;6.00;4.40;;;9.40;99.90;;;;;;2621255;46;20914;31
2023/05/07 09:47:14;;;;;;;5.80;4.78;;;9.50;99.90;;;;;;2603042;54;20038;31
2023/05/07 09:50:03;;;;;;;5.80;4.90;;;9.50;99.90;;;;;;2604088;46;20089;31
2023/05/07 09:52:40;;;;;;;6.45;5.43;;;9.60;99.90;;;;;;2603354;54;20027;31
2023/05/07 09:55:19;;;;;;;5.65;4.95;;;9.60;99.90;;;;;;2621220;46;20727;31
2023/05/07 09:57:55;;;;;;;6.45;4.63;;;9.60;99.90;;;;;;2603110;54;20120;31
2023/05/07 10:00:33;;;;;;;5.83;4.90;;;9.60;99.90;;;;;;2602913;54;20026;31
2023/05/07 10:03:20;;;;;;;6.18;4.50;;;9.70;99.90;;;;;;2602243;54;20851;31
2023/05/07 10:06:15;;;;;;;5.50;4.50;;;9.80;99.90;;;;;;2602856;54;20033;31
2023/05/07 10:08:53;;;;;;;8.85;3.90;;;10.00;99.90;;;;;;2603051;54;20432;31
2023/05/07 10:11:32;;;;;;;6.10;3.90;;;10.10;99.90;;;;;;2615364;46;20096;31
2023/05/07 10:14:11;;;;;;;5.70;3.85;;;10.20;99.90;;;;;;2610328;46;20108;31
2023/05/07 10:16:50;;;;;;;3.90;3.13;;;10.20;99.90;;;;;;2602057;54;21161;31
2023/05/07 10:19:28;;;;;;;4.88;3.70;;;10.30;99.90;;;;;;2607702;39;21418;31
2023/05/07 10:22:08;;;;;;;4.72;3.05;;;10.40;99.90;;;;;;2607673;39;21485;31
2023/05/07 10:24:49;;;;;;;3.25;2.95;;;10.40;99.90;;;;;;2602764;54;20905;31
2023/05/07 10:27:28;;;;;;;3.50;2.80;;;10.40;99.90;;;;;;2602775;54;21251;31
2023/05/07 10:30:10;;;;;;;4.88;3.17;;;10.50;99.90;;;;;;2602899;54;20085;31
2023/05/07 10:32:51;;;;;;;3.45;2.78;;;10.70;99.90;;;;;;2602644;54;20085;31
2023/05/07 10:35:40;;;;;;;4.00;3.13;;;10.70;99.90;;;;;;2602719;54;20951;31
2023/05/07 10:38:22;;;;;;;4.57;3.50;;;10.90;99.90;;;;;;2664147;31;20496;31
2023/05/07 10:50:24;;;;;;;8.65;2.80;;;10.90;99.90;;;;;;2601547;54;20785;31
2023/05/07 10:53:33;;;;;;;3.92;2.92;;;10.90;99.90;;;;;;2602912;54;20873;31
2023/05/07 10:58:52;;;;;;;4.45;2.60;;;10.80;99.90;;;;;;2602847;54;20913;31
2023/05/07 11:01:53;;;;;;;;;;;10.80;99.90;;;;;;2602877;54;20936;31
2023/05/07 11:04:38;;;;;;;4.45;2.65;;;10.80;99.90;;;;;;2628748;39;21223;31
2023/05/07 11:07:35;;;;;;;4.10;2.90;;;10.90;99.90;;;;;;2602350;54;20872;31
2023/05/07 11:10:24;;;;;;;4.80;2.85;;;10.80;99.90;;;;;;2602724;54;20964;31
2023/05/07 11:13:11;;;;;;;3.60;2.75;;;10.90;99.90;;;;;;2602459;54;20062;31
2023/05/07 11:15:58;;;;;;;4.13;2.83;;;10.90;99.90;;;;;;2602608;54;20042;31
2023/05/07 11:18:41;;;;;;;2.77;2.37;;;10.90;99.90;;;;;;2602721;54;20026;31
2023/05/07 11:21:34;;;;;;;3.70;2.80;;;11.00;99.90;;;;;;2602597;54;20029;31
2023/05/07 11:24:32;;;;;;;3.85;3.00;;;10.90;99.90;;;;;;2602693;54;20026;31
2023/05/07 11:27:16;;;;;;;5.30;3.08;;;11.00;99.90;;;;;;2602618;54;20900;31
2023/05/07 11:29:54;;;;;;;4.70;3.00;;;11.00;99.90;;;;;;2602505;54;20054;31
2023/05/07 11:32:33;;;;;;;3.90;2.30;;;11.00;99.90;;;;;;2602378;54;20078;31
2023/05/07 11:35:12;;;;;;;3.73;2.60;;;10.90;99.90;;;;;;2602614;54;20875;31
2023/05/07 11:37:48;;;;;;;4.70;2.75;;;10.90;99.90;;;;;;2603624;54;20027;31
2023/05/07 11:40:25;;;;;;;;;;;11.00;99.90;;;;;;2621788;46;20057;31
2023/05/07 11:43:04;;;;;;;;;;;11.00;99.90;;;;;;2603754;54;20076;31
2023/05/07 11:45:40;;;;;;;2.95;2.42;;;11.00;99.90;;;;;;2621894;46;19934;31
2023/05/07 11:48:17;;;;;;;3.55;2.75;;;11.00;99.90;;;;;;2603280;54;20022;31
2023/05/07 11:50:56;;;;;;;4.28;2.50;;;11.00;99.90;;;;;;2621760;46;20756;31
2023/05/07 11:53:32;;;;;;;3.05;2.40;;;11.00;99.90;;;;;;2621906;46;20034;31
2023/05/07 11:56:12;;;;;;;4.30;2.50;;;11.00;99.90;;;;;;2603482;54;20077;31
2023/05/07 11:58:53;;;;;;;5.10;2.80;;;11.00;99.90;;;;;;2621543;46;20887;31
2023/05/07 12:01:32;;;;;;;3.67;3.10;;;11.00;99.90;;;;;;2603410;54;20089;31
2023/05/07 12:04:10;;;;;;;3.65;2.65;;;11.10;99.90;;;;;;2603367;54;20027;31
2023/05/07 12:06:50;;;;;;;3.05;2.13;;;11.20;99.90;;;;;;2603423;54;20031;31
2023/05/07 12:09:26;;;;;;;5.45;2.40;;;11.20;99.90;;;;;;2622100;46;20089;31
2023/05/07 12:12:08;;;;;;;5.65;2.78;;;11.20;99.90;;;;;;2603232;54;20100;31
2023/05/07 12:14:49;;;;;;;3.83;2.77;;;11.20;99.90;;;;;;2603415;54;20029;31
2023/05/07 12:17:38;;;;;;;4.65;3.17;;;11.20;99.90;;;;;;2603358;54;20030;31
2023/05/07 12:20:18;;;;;;;4.80;3.10;;;11.20;99.90;;;;;;2603562;54;20928;31
2023/05/07 12:22:56;;;;;;;4.30;2.90;;;11.20;99.90;;;;;;2622046;46;20084;31
2023/05/07 12:25:34;;;;;;;4.93;2.67;;;11.30;99.90;;;;;;2603440;54;20026;31
2023/05/07 12:28:11;;;;;;;3.50;2.60;;;11.30;99.90;;;;;;2621826;46;20065;31
2023/05/07 12:30:51;;;;;;;3.45;2.85;;;11.40;99.90;;;;;;2603331;54;20037;31
2023/05/07 12:33:30;;;;;;;4.35;3.05;;;11.40;99.90;;;;;;2603455;54;20938;31
2023/05/07 12:36:12;;;;;;;3.45;2.58;;;11.40;99.90;;;;;;2621893;46;20089;31
2023/05/07 12:38:52;;;;;;;3.78;2.97;;;11.40;99.90;;;;;;2621108;46;20022;31
2023/05/07 12:41:31;;;;;;;4.95;3.05;;;11.40;99.90;;;;;;2621870;46;20798;31
2023/05/07 12:44:09;;;;;;;4.30;3.15;;;11.40;99.90;;;;;;2603220;54;20038;31
2023/05/07 12:49:24;;;;;;;4.35;3.50;;;11.40;99.90;;;;;;2603097;54;20930;31
2023/05/07 12:52:03;;;;;;;5.50;3.47;;;11.50;99.90;;;;;;2602441;54;20795;31
2023/05/07 12:54:39;;;;;;;4.70;4.00;;;11.50;99.90;;;;;;2603174;54;20044;31
2023/05/07 12:57:15;;;;;;;5.05;4.20;;;11.50;99.90;;;;;;2621730;46;20037;31
2023/05/07 12:59:50;;;;;;;4.45;3.33;;;11.60;99.90;;;;;;2603064;54;20885;31
2023/05/07 13:02:36;;;;;;;4.57;3.67;;;11.50;99.90;;;;;;2603191;54;20848;31
2023/05/07 13:05:18;;;;;;;4.90;4.25;;;11.50;99.90;;;;;;2603160;54;20889;31
2023/05/07 13:07:56;;;;;;;5.18;3.90;;;11.40;99.90;;;;;;2603190;54;20048;31
2023/05/07 13:10:38;;;;;;;4.70;3.65;;;11.40;99.90;;;;;;2621204;46;20880;31
2023/05/07 13:13:15;;;;;;;5.90;4.20;;;11.40;99.90;;;;;;2603303;54;20791;31
2023/05/07 13:15:52;;;;;;;7.10;4.70;;;11.40;99.90;;;;;;2621321;46;20249;31
2023/05/07 13:18:29;;;;;;;5.55;4.63;;;11.40;99.90;;;;;;2603262;54;20030;31
2023/05/07 13:21:12;;;;;;;5.10;4.00;;;11.30;99.90;;;;;;2602885;54;21011;31
2023/05/07 13:23:49;;;;;;;6.15;4.38;;;11.30;99.90;;;;;;2603298;54;20845;31
2023/05/07 13:26:27;;;;;;;4.97;4.38;;;11.20;99.90;;;;;;2602898;54;20920;31
2023/05/07 13:29:05;;;;;;;5.15;4.65;;;11.10;99.90;;;;;;2602881;54;20023;31
2023/05/07 13:31:44;;;;;;;5.30;4.55;;;10.90;99.90;;;;;;2603188;54;20026;31
2023/05/07 13:34:24;;;;;;;5.78;4.07;;;10.80;99.90;;;;;;2602323;54;24913;31
2023/05/07 13:37:07;;;;;;;5.45;4.05;;;10.80;99.90;;;;;;2603046;54;20031;31
2023/05/07 13:39:48;;;;;;;4.55;3.70;;;10.80;99.90;;;;;;2603128;54;20792;31
2023/05/07 13:42:28;;;;;;;5.55;4.28;;;10.80;99.90;;;;;;2602998;54;20873;31
2023/05/07 13:45:08;;;;;;;5.30;3.60;;;10.80;99.90;;;;;;2621353;46;20057;31
2023/05/07 13:47:44;;;;;;;4.38;3.60;;;10.80;99.90;;;;;;2603059;54;20095;31
2023/05/07 13:50:23;;;;;;;5.30;3.17;;;10.80;99.90;;;;;;2621417;46;20034;31
2023/05/07 13:55:37;;;;;;;4.70;3.50;;;10.80;99.90;;;;;;2619795;46;20030;31
2023/05/07 13:58:14;;;;;;;4.47;3.17;;;10.90;99.90;;;;;;2627164;39;21494;31
2023/05/07 14:00:52;;;;;;;4.70;2.88;;;10.90;99.90;;;;;;2621411;46;20038;31
2023/05/07 14:03:31;;;;;;;4.88;3.20;;;10.90;99.90;;;;;;2602988;54;20046;31
2023/05/07 14:06:11;;;;;;;3.90;3.10;;;10.90;99.90;;;;;;2602926;54;20022;31
2023/05/07 14:08:46;;;;;;;4.95;3.10;;;10.90;99.90;;;;;;2603044;54;20755;31
2023/05/07 14:11:25;;;;;;;3.85;2.58;;;10.90;99.90;;;;;;2621343;46;20937;31
2023/05/07 14:14:02;;;;;;;3.65;2.47;;;10.90;99.90;;;;;;2620965;46;21364;31
2023/05/07 14:16:38;;;;;;;5.50;2.95;;;10.90;99.90;;;;;;2602878;54;20848;31
2023/05/07 14:19:16;;;;;;;3.17;2.70;;;10.90;99.90;;;;;;2603102;54;20042;31
2023/05/07 14:21:50;;;;;;;3.08;2.67;;;10.80;99.90;;;;;;2621430;46;20085;31
2023/05/07 14:24:29;;;;;;;5.22;3.40;;;10.80;99.90;;;;;;2602359;54;20027;31
2023/05/07 14:27:17;;;;;;;4.57;3.13;;;10.80;99.90;;;;;;2602976;54;20031;31
2023/05/07 14:29:55;;;;;;;4.30;2.72;;;10.70;99.90;;;;;;2602945;54;20181;31
2023/05/07 14:32:31;;;;;;;4.75;2.88;;;10.70;99.90;;;;;;2621116;47;20080;31
2023/05/07 14:35:08;;;;;;;5.97;3.17;;;10.70;99.90;;;;;;2602796;54;20891;31
2023/05/07 14:37:46;;;;;;;5.38;3.05;;;10.70;99.90;;;;;;2602664;54;20149;31
2023/05/07 14:40:22;;;;;;;3.95;2.78;;;10.70;99.90;;;;;;2621790;47;20031;31
2023/05/07 14:43:03;;;;;;;5.40;3.00;;;10.70;99.90;;;;;;2602644;54;20909;31
2023/05/07 14:45:38;;;;;;;3.95;3.05;;;10.60;99.90;;;;;;2602684;54;19941;31